Accueil
METAR-TAF:

METAR-TAF

Aéroports :

Diest, Belgique

Base aérienne de Schaffen

latitude: 51-00N, longitude: 005-04E, altitude: 30 m

Observation

Le bulletin a été fait il y a 24 minutes, à 18:25 UTC
Vent 4 kt de nord/nord-est
Température 13°C
Humidité 94%
Pression 1018 hPa
Visibilité 10 km ou plus

METAR: EBDT 171825Z AUTO 02004KT 9999 BKN037/// 13/12 Q1018 BLU

Heure: 20:49 (18:49 UTC)


TAF: absent

Observations et prévisions météorologiques de plus de 4000 aéroports (messages METAR et TAF).

Les stations disponibles sont représentées par des disques jaunes et rouges sur la carte.

Passer la souris dessus pour voir le nom de la station.

Cliquer dessus pour voir les observations et prévisions météorologiques.

Pour changer de carte: cliquez sur les boutons verts avec une croix noire pour zoomer, sur le bouton vert avec un tiret pour effectuer un zoom arrière, ou sur les flèches vertes pour les cartes adjacentes.


METAR-TAF: